sensor_id;sensor_type;location;lat;lon;timestamp;P1;durP1;ratioP1;P2;durP2;ratioP2
8819;SDS011;4446;50.876;4.736;2023-04-08T00:00:44;15.07;;;6.93;;
8819;SDS011;4446;50.876;4.736;2023-04-08T00:03:11;15.73;;;7.20;;
8819;SDS011;4446;50.876;4.736;2023-04-08T00:05:38;13.18;;;6.28;;
8819;SDS011;4446;50.876;4.736;2023-04-08T00:08:06;11.65;;;6.53;;
8819;SDS011;4446;50.876;4.736;2023-04-08T00:10:33;10.55;;;6.72;;
8819;SDS011;4446;50.876;4.736;2023-04-08T00:13:00;13.93;;;6.78;;
8819;SDS011;4446;50.876;4.736;2023-04-08T00:15:27;17.00;;;7.57;;
8819;SDS011;4446;50.876;4.736;2023-04-08T00:17:54;15.82;;;7.20;;
8819;SDS011;4446;50.876;4.736;2023-04-08T00:20:21;13.35;;;7.18;;
8819;SDS011;4446;50.876;4.736;2023-04-08T00:22:49;14.98;;;7.20;;
8819;SDS011;4446;50.876;4.736;2023-04-08T00:25:17;13.73;;;6.60;;
8819;SDS011;4446;50.876;4.736;2023-04-08T00:27:44;14.38;;;7.45;;
8819;SDS011;4446;50.876;4.736;2023-04-08T00:30:11;16.67;;;7.80;;
8819;SDS011;4446;50.876;4.736;2023-04-08T00:32:39;13.77;;;7.28;;
8819;SDS011;4446;50.876;4.736;2023-04-08T00:35:06;13.82;;;7.63;;
8819;SDS011;4446;50.876;4.736;2023-04-08T00:37:34;12.70;;;7.20;;
8819;SDS011;4446;50.876;4.736;2023-04-08T00:40:01;16.95;;;7.97;;
8819;SDS011;4446;50.876;4.736;2023-04-08T00:42:30;16.33;;;7.60;;
8819;SDS011;4446;50.876;4.736;2023-04-08T00:44:57;16.90;;;7.50;;
8819;SDS011;4446;50.876;4.736;2023-04-08T00:47:24;18.13;;;7.68;;
8819;SDS011;4446;50.876;4.736;2023-04-08T00:49:50;17.67;;;7.65;;
8819;SDS011;4446;50.876;4.736;2023-04-08T00:52:17;15.30;;;7.70;;
8819;SDS011;4446;50.876;4.736;2023-04-08T00:54:44;15.77;;;7.95;;
8819;SDS011;4446;50.876;4.736;2023-04-08T00:57:11;12.98;;;7.72;;
8819;SDS011;4446;50.876;4.736;2023-04-08T00:59:39;14.23;;;7.47;;
8819;SDS011;4446;50.876;4.736;2023-04-08T01:02:14;11.50;;;7.18;;
8819;SDS011;4446;50.876;4.736;2023-04-08T01:04:48;13.32;;;7.88;;
8819;SDS011;4446;50.876;4.736;2023-04-08T01:07:21;15.70;;;8.18;;
8819;SDS011;4446;50.876;4.736;2023-04-08T01:09:54;17.13;;;8.07;;
8819;SDS011;4446;50.876;4.736;2023-04-08T01:12:23;11.40;;;8.02;;
8819;SDS011;4446;50.876;4.736;2023-04-08T01:14:56;15.88;;;7.80;;
8819;SDS011;4446;50.876;4.736;2023-04-08T01:17:26;14.55;;;7.82;;
8819;SDS011;4446;50.876;4.736;2023-04-08T01:19:55;18.27;;;9.05;;
8819;SDS011;4446;50.876;4.736;2023-04-08T01:22:32;13.90;;;7.82;;
8819;SDS011;4446;50.876;4.736;2023-04-08T01:25:08;16.00;;;8.82;;
8819;SDS011;4446;50.876;4.736;2023-04-08T01:27:42;18.63;;;8.55;;
8819;SDS011;4446;50.876;4.736;2023-04-08T01:30:09;14.55;;;8.20;;
8819;SDS011;4446;50.876;4.736;2023-04-08T01:32:37;12.98;;;6.93;;
8819;SDS011;4446;50.876;4.736;2023-04-08T01:35:05;12.80;;;6.88;;
8819;SDS011;4446;50.876;4.736;2023-04-08T01:37:33;14.93;;;8.27;;
8819;SDS011;4446;50.876;4.736;2023-04-08T01:40:01;14.95;;;7.82;;
8819;SDS011;4446;50.876;4.736;2023-04-08T01:42:28;17.67;;;8.25;;
8819;SDS011;4446;50.876;4.736;2023-04-08T01:44:57;13.18;;;7.28;;
8819;SDS011;4446;50.876;4.736;2023-04-08T01:47:25;12.10;;;7.60;;
8819;SDS011;4446;50.876;4.736;2023-04-08T01:49:54;15.93;;;8.25;;
8819;SDS011;4446;50.876;4.736;2023-04-08T01:52:23;12.20;;;7.80;;
8819;SDS011;4446;50.876;4.736;2023-04-08T01:54:51;15.00;;;7.85;;
8819;SDS011;4446;50.876;4.736;2023-04-08T01:57:21;14.40;;;7.32;;
8819;SDS011;4446;50.876;4.736;2023-04-08T01:59:52;14.50;;;7.75;;
8819;SDS011;4446;50.876;4.736;2023-04-08T02:02:23;18.23;;;8.10;;
8819;SDS011;4446;50.876;4.736;2023-04-08T02:04:52;19.48;;;8.25;;
8819;SDS011;4446;50.876;4.736;2023-04-08T02:07:19;20.58;;;8.63;;
8819;SDS011;4446;50.876;4.736;2023-04-08T02:09:46;18.20;;;8.43;;
8819;SDS011;4446;50.876;4.736;2023-04-08T02:12:13;13.65;;;7.82;;
8819;SDS011;4446;50.876;4.736;2023-04-08T02:14:40;17.83;;;8.18;;
8819;SDS011;4446;50.876;4.736;2023-04-08T02:17:08;18.10;;;8.50;;
8819;SDS011;4446;50.876;4.736;2023-04-08T02:19:41;16.25;;;7.20;;
8819;SDS011;4446;50.876;4.736;2023-04-08T02:22:16;15.00;;;7.65;;
8819;SDS011;4446;50.876;4.736;2023-04-08T02:24:47;16.58;;;8.27;;
8819;SDS011;4446;50.876;4.736;2023-04-08T02:27:16;18.65;;;8.85;;
8819;SDS011;4446;50.876;4.736;2023-04-08T02:29:43;16.48;;;8.27;;
8819;SDS011;4446;50.876;4.736;2023-04-08T02:32:12;13.07;;;8.02;;
8819;SDS011;4446;50.876;4.736;2023-04-08T02:34:42;17.05;;;8.55;;
8819;SDS011;4446;50.876;4.736;2023-04-08T02:37:09;16.77;;;8.40;;
8819;SDS011;4446;50.876;4.736;2023-04-08T02:39:36;18.90;;;9.60;;
8819;SDS011;4446;50.876;4.736;2023-04-08T02:42:03;20.38;;;9.23;;
8819;SDS011;4446;50.876;4.736;2023-04-08T02:44:30;19.98;;;10.05;;
8819;SDS011;4446;50.876;4.736;2023-04-08T02:46:57;21.08;;;9.98;;
8819;SDS011;4446;50.876;4.736;2023-04-08T02:49:23;23.23;;;10.93;;
8819;SDS011;4446;50.876;4.736;2023-04-08T02:51:52;18.98;;;8.68;;
8819;SDS011;4446;50.876;4.736;2023-04-08T02:54:18;20.40;;;9.27;;
8819;SDS011;4446;50.876;4.736;2023-04-08T02:56:45;21.50;;;9.75;;
8819;SDS011;4446;50.876;4.736;2023-04-08T02:59:12;18.63;;;9.88;;
8819;SDS011;4446;50.876;4.736;2023-04-08T03:01:39;16.88;;;9.27;;
8819;SDS011;4446;50.876;4.736;2023-04-08T03:04:06;17.95;;;10.10;;
8819;SDS011;4446;50.876;4.736;2023-04-08T03:06:33;18.55;;;10.15;;
8819;SDS011;4446;50.876;4.736;2023-04-08T03:09:01;21.90;;;10.55;;
8819;SDS011;4446;50.876;4.736;2023-04-08T03:11:29;19.13;;;10.15;;
8819;SDS011;4446;50.876;4.736;2023-04-08T03:13:57;26.65;;;10.40;;
8819;SDS011;4446;50.876;4.736;2023-04-08T03:16:24;17.45;;;9.98;;
8819;SDS011;4446;50.876;4.736;2023-04-08T03:18:51;15.25;;;8.85;;
8819;SDS011;4446;50.876;4.736;2023-04-08T03:21:18;19.48;;;10.27;;
8819;SDS011;4446;50.876;4.736;2023-04-08T03:23:45;19.88;;;9.60;;
8819;SDS011;4446;50.876;4.736;2023-04-08T03:26:13;20.25;;;10.43;;
8819;SDS011;4446;50.876;4.736;2023-04-08T03:28:40;19.33;;;9.65;;
8819;SDS011;4446;50.876;4.736;2023-04-08T03:31:06;20.10;;;9.35;;
8819;SDS011;4446;50.876;4.736;2023-04-08T03:33:33;20.40;;;10.85;;
8819;SDS011;4446;50.876;4.736;2023-04-08T03:36:00;20.77;;;9.50;;
8819;SDS011;4446;50.876;4.736;2023-04-08T03:38:27;17.05;;;10.30;;
8819;SDS011;4446;50.876;4.736;2023-04-08T03:40:54;25.00;;;10.23;;
8819;SDS011;4446;50.876;4.736;2023-04-08T03:43:22;18.38;;;10.23;;
8819;SDS011;4446;50.876;4.736;2023-04-08T03:45:50;21.65;;;10.80;;
8819;SDS011;4446;50.876;4.736;2023-04-08T03:48:17;22.65;;;10.70;;
8819;SDS011;4446;50.876;4.736;2023-04-08T03:50:43;19.50;;;10.63;;
8819;SDS011;4446;50.876;4.736;2023-04-08T03:53:10;18.83;;;10.35;;
8819;SDS011;4446;50.876;4.736;2023-04-08T03:55:37;27.55;;;11.48;;
8819;SDS011;4446;50.876;4.736;2023-04-08T03:58:04;22.90;;;11.20;;
8819;SDS011;4446;50.876;4.736;2023-04-08T04:00:32;21.30;;;10.57;;
8819;SDS011;4446;50.876;4.736;2023-04-08T04:03:00;17.63;;;10.23;;
8819;SDS011;4446;50.876;4.736;2023-04-08T04:05:27;18.83;;;10.70;;
8819;SDS011;4446;50.876;4.736;2023-04-08T04:07:54;24.02;;;10.85;;
8819;SDS011;4446;50.876;4.736;2023-04-08T04:10:22;22.75;;;11.27;;
8819;SDS011;4446;50.876;4.736;2023-04-08T04:12:49;18.88;;;10.27;;
8819;SDS011;4446;50.876;4.736;2023-04-08T04:15:16;22.38;;;10.70;;
8819;SDS011;4446;50.876;4.736;2023-04-08T04:17:46;20.48;;;10.77;;
8819;SDS011;4446;50.876;4.736;2023-04-08T04:20:13;21.70;;;10.15;;
8819;SDS011;4446;50.876;4.736;2023-04-08T04:22:40;21.70;;;11.05;;
8819;SDS011;4446;50.876;4.736;2023-04-08T04:25:07;18.17;;;10.63;;
8819;SDS011;4446;50.876;4.736;2023-04-08T04:27:34;26.15;;;11.48;;
8819;SDS011;4446;50.876;4.736;2023-04-08T04:30:02;20.35;;;9.82;;
8819;SDS011;4446;50.876;4.736;2023-04-08T04:32:29;17.92;;;10.02;;
8819;SDS011;4446;50.876;4.736;2023-04-08T04:34:58;26.80;;;11.88;;
8819;SDS011;4446;50.876;4.736;2023-04-08T04:37:25;24.65;;;12.02;;
8819;SDS011;4446;50.876;4.736;2023-04-08T04:39:52;17.20;;;10.60;;
8819;SDS011;4446;50.876;4.736;2023-04-08T04:42:19;21.20;;;10.70;;
8819;SDS011;4446;50.876;4.736;2023-04-08T04:44:46;16.65;;;9.80;;
8819;SDS011;4446;50.876;4.736;2023-04-08T04:47:13;18.52;;;9.70;;
8819;SDS011;4446;50.876;4.736;2023-04-08T04:49:40;26.95;;;11.27;;
8819;SDS011;4446;50.876;4.736;2023-04-08T04:52:08;24.13;;;11.73;;
8819;SDS011;4446;50.876;4.736;2023-04-08T04:54:35;21.25;;;11.55;;
8819;SDS011;4446;50.876;4.736;2023-04-08T04:57:02;22.38;;;11.90;;
8819;SDS011;4446;50.876;4.736;2023-04-08T04:59:29;21.98;;;12.70;;
8819;SDS011;4446;50.876;4.736;2023-04-08T05:01:56;23.02;;;11.85;;
8819;SDS011;4446;50.876;4.736;2023-04-08T05:04:23;24.88;;;11.93;;
8819;SDS011;4446;50.876;4.736;2023-04-08T05:06:50;23.27;;;11.98;;
8819;SDS011;4446;50.876;4.736;2023-04-08T05:09:18;19.38;;;11.05;;
8819;SDS011;4446;50.876;4.736;2023-04-08T05:11:45;27.65;;;12.77;;
8819;SDS011;4446;50.876;4.736;2023-04-08T05:14:12;24.80;;;12.70;;
8819;SDS011;4446;50.876;4.736;2023-04-08T05:16:39;27.65;;;14.30;;
8819;SDS011;4446;50.876;4.736;2023-04-08T05:19:06;24.67;;;13.07;;
8819;SDS011;4446;50.876;4.736;2023-04-08T05:21:33;25.90;;;13.38;;
8819;SDS011;4446;50.876;4.736;2023-04-08T05:24:00;22.05;;;14.27;;
8819;SDS011;4446;50.876;4.736;2023-04-08T05:26:28;28.80;;;14.30;;
8819;SDS011;4446;50.876;4.736;2023-04-08T05:28:55;31.60;;;14.18;;
8819;SDS011;4446;50.876;4.736;2023-04-08T05:31:21;21.55;;;12.75;;
8819;SDS011;4446;50.876;4.736;2023-04-08T05:33:48;26.98;;;14.95;;
8819;SDS011;4446;50.876;4.736;2023-04-08T05:36:15;28.00;;;14.32;;
8819;SDS011;4446;50.876;4.736;2023-04-08T05:38:42;26.55;;;14.20;;
8819;SDS011;4446;50.876;4.736;2023-04-08T05:41:09;25.27;;;13.38;;
8819;SDS011;4446;50.876;4.736;2023-04-08T05:43:38;27.55;;;15.63;;
8819;SDS011;4446;50.876;4.736;2023-04-08T05:46:05;25.98;;;14.75;;
8819;SDS011;4446;50.876;4.736;2023-04-08T05:48:32;26.88;;;13.93;;
8819;SDS011;4446;50.876;4.736;2023-04-08T05:50:59;27.17;;;14.00;;
8819;SDS011;4446;50.876;4.736;2023-04-08T05:53:27;27.02;;;15.10;;
8819;SDS011;4446;50.876;4.736;2023-04-08T05:55:54;25.92;;;13.85;;
8819;SDS011;4446;50.876;4.736;2023-04-08T05:58:21;22.55;;;13.75;;
8819;SDS011;4446;50.876;4.736;2023-04-08T06:00:49;29.92;;;16.52;;
8819;SDS011;4446;50.876;4.736;2023-04-08T06:03:16;30.05;;;15.70;;
8819;SDS011;4446;50.876;4.736;2023-04-08T06:05:43;26.63;;;15.70;;
8819;SDS011;4446;50.876;4.736;2023-04-08T06:08:09;32.28;;;15.43;;
8819;SDS011;4446;50.876;4.736;2023-04-08T06:10:37;30.60;;;14.70;;
8819;SDS011;4446;50.876;4.736;2023-04-08T06:13:04;30.17;;;15.52;;
8819;SDS011;4446;50.876;4.736;2023-04-08T06:15:31;30.27;;;16.75;;
8819;SDS011;4446;50.876;4.736;2023-04-08T06:18:00;28.10;;;15.57;;
8819;SDS011;4446;50.876;4.736;2023-04-08T06:20:27;27.05;;;16.27;;
8819;SDS011;4446;50.876;4.736;2023-04-08T06:22:54;30.05;;;16.23;;
8819;SDS011;4446;50.876;4.736;2023-04-08T06:25:21;35.28;;;16.73;;
8819;SDS011;4446;50.876;4.736;2023-04-08T06:27:47;23.88;;;15.77;;
8819;SDS011;4446;50.876;4.736;2023-04-08T06:30:14;26.98;;;15.90;;
8819;SDS011;4446;50.876;4.736;2023-04-08T06:32:41;25.98;;;15.60;;
8819;SDS011;4446;50.876;4.736;2023-04-08T06:35:12;28.83;;;15.60;;
8819;SDS011;4446;50.876;4.736;2023-04-08T06:37:39;25.67;;;14.63;;
8819;SDS011;4446;50.876;4.736;2023-04-08T06:40:07;29.17;;;15.23;;
8819;SDS011;4446;50.876;4.736;2023-04-08T06:42:34;24.38;;;14.10;;
8819;SDS011;4446;50.876;4.736;2023-04-08T06:45:02;28.25;;;16.35;;
8819;SDS011;4446;50.876;4.736;2023-04-08T06:47:31;24.38;;;15.45;;
8819;SDS011;4446;50.876;4.736;2023-04-08T06:49:58;28.70;;;16.13;;
8819;SDS011;4446;50.876;4.736;2023-04-08T06:52:26;29.95;;;17.33;;
8819;SDS011;4446;50.876;4.736;2023-04-08T06:54:53;32.40;;;16.83;;
8819;SDS011;4446;50.876;4.736;2023-04-08T06:57:20;37.10;;;17.58;;
8819;SDS011;4446;50.876;4.736;2023-04-08T06:59:47;33.78;;;18.08;;
8819;SDS011;4446;50.876;4.736;2023-04-08T07:02:14;33.90;;;18.38;;
8819;SDS011;4446;50.876;4.736;2023-04-08T07:04:41;29.88;;;18.63;;
8819;SDS011;4446;50.876;4.736;2023-04-08T07:07:08;30.70;;;16.92;;
8819;SDS011;4446;50.876;4.736;2023-04-08T07:09:36;37.05;;;18.58;;
8819;SDS011;4446;50.876;4.736;2023-04-08T07:12:04;27.33;;;17.73;;
8819;SDS011;4446;50.876;4.736;2023-04-08T07:14:31;25.17;;;16.27;;
8819;SDS011;4446;50.876;4.736;2023-04-08T07:16:58;27.80;;;16.83;;
8819;SDS011;4446;50.876;4.736;2023-04-08T07:19:24;29.83;;;16.85;;
8819;SDS011;4446;50.876;4.736;2023-04-08T07:21:51;28.85;;;16.58;;
8819;SDS011;4446;50.876;4.736;2023-04-08T07:24:18;26.20;;;15.88;;
8819;SDS011;4446;50.876;4.736;2023-04-08T07:26:46;25.63;;;16.35;;
8819;SDS011;4446;50.876;4.736;2023-04-08T07:29:13;28.63;;;17.17;;
8819;SDS011;4446;50.876;4.736;2023-04-08T07:31:41;27.38;;;17.60;;
8819;SDS011;4446;50.876;4.736;2023-04-08T07:34:09;26.75;;;17.70;;
8819;SDS011;4446;50.876;4.736;2023-04-08T07:36:36;26.45;;;16.52;;
8819;SDS011;4446;50.876;4.736;2023-04-08T07:39:03;28.88;;;17.35;;
8819;SDS011;4446;50.876;4.736;2023-04-08T07:41:30;22.88;;;15.43;;
8819;SDS011;4446;50.876;4.736;2023-04-08T07:43:58;26.35;;;15.63;;
8819;SDS011;4446;50.876;4.736;2023-04-08T07:46:25;21.15;;;13.20;;
8819;SDS011;4446;50.876;4.736;2023-04-08T07:48:52;24.17;;;14.77;;
8819;SDS011;4446;50.876;4.736;2023-04-08T07:51:19;23.85;;;15.00;;
8819;SDS011;4446;50.876;4.736;2023-04-08T07:53:46;25.33;;;15.98;;
8819;SDS011;4446;50.876;4.736;2023-04-08T07:56:13;25.40;;;14.60;;
8819;SDS011;4446;50.876;4.736;2023-04-08T07:58:42;21.10;;;13.15;;
8819;SDS011;4446;50.876;4.736;2023-04-08T08:01:17;20.08;;;12.63;;
8819;SDS011;4446;50.876;4.736;2023-04-08T08:03:46;15.60;;;11.00;;
8819;SDS011;4446;50.876;4.736;2023-04-08T08:06:13;20.90;;;12.68;;
8819;SDS011;4446;50.876;4.736;2023-04-08T08:08:40;18.80;;;13.00;;
8819;SDS011;4446;50.876;4.736;2023-04-08T08:11:07;20.17;;;13.07;;
8819;SDS011;4446;50.876;4.736;2023-04-08T08:13:34;17.27;;;10.40;;
8819;SDS011;4446;50.876;4.736;2023-04-08T08:16:01;16.42;;;9.45;;
8819;SDS011;4446;50.876;4.736;2023-04-08T08:18:29;11.52;;;8.30;;
8819;SDS011;4446;50.876;4.736;2023-04-08T08:20:56;10.25;;;7.63;;
8819;SDS011;4446;50.876;4.736;2023-04-08T08:23:23;13.25;;;8.18;;
8819;SDS011;4446;50.876;4.736;2023-04-08T08:25:57;10.93;;;7.43;;
8819;SDS011;4446;50.876;4.736;2023-04-08T08:28:25;12.07;;;8.45;;
8819;SDS011;4446;50.876;4.736;2023-04-08T08:30:52;14.88;;;9.68;;
8819;SDS011;4446;50.876;4.736;2023-04-08T08:33:19;14.52;;;9.60;;
8819;SDS011;4446;50.876;4.736;2023-04-08T08:35:47;15.68;;;9.55;;
8819;SDS011;4446;50.876;4.736;2023-04-08T08:38:14;13.75;;;9.15;;
8819;SDS011;4446;50.876;4.736;2023-04-08T08:40:41;14.90;;;10.20;;
8819;SDS011;4446;50.876;4.736;2023-04-08T08:43:09;10.48;;;8.73;;
8819;SDS011;4446;50.876;4.736;2023-04-08T08:45:37;9.23;;;8.18;;
8819;SDS011;4446;50.876;4.736;2023-04-08T08:48:05;10.75;;;6.82;;
8819;SDS011;4446;50.876;4.736;2023-04-08T08:50:32;9.07;;;7.03;;
8819;SDS011;4446;50.876;4.736;2023-04-08T08:53:01;12.13;;;7.30;;
8819;SDS011;4446;50.876;4.736;2023-04-08T08:55:29;11.57;;;8.00;;
8819;SDS011;4446;50.876;4.736;2023-04-08T08:57:58;12.82;;;7.85;;
8819;SDS011;4446;50.876;4.736;2023-04-08T09:00:32;10.07;;;6.97;;
8819;SDS011;4446;50.876;4.736;2023-04-08T09:03:15;9.43;;;7.30;;
8819;SDS011;4446;50.876;4.736;2023-04-08T09:05:46;9.43;;;7.32;;
8819;SDS011;4446;50.876;4.736;2023-04-08T09:08:26;11.50;;;7.80;;
8819;SDS011;4446;50.876;4.736;2023-04-08T09:10:54;11.27;;;7.55;;
8819;SDS011;4446;50.876;4.736;2023-04-08T09:13:21;10.15;;;7.53;;
8819;SDS011;4446;50.876;4.736;2023-04-08T09:16:01;11.50;;;7.70;;
8819;SDS011;4446;50.876;4.736;2023-04-08T09:18:30;8.25;;;6.90;;
8819;SDS011;4446;50.876;4.736;2023-04-08T09:20:58;11.82;;;7.95;;
8819;SDS011;4446;50.876;4.736;2023-04-08T09:23:37;9.73;;;8.50;;
8819;SDS011;4446;50.876;4.736;2023-04-08T09:26:08;11.85;;;9.48;;
8819;SDS011;4446;50.876;4.736;2023-04-08T09:28:37;13.45;;;10.40;;
8819;SDS011;4446;50.876;4.736;2023-04-08T09:31:16;14.15;;;10.10;;
8819;SDS011;4446;50.876;4.736;2023-04-08T09:33:45;14.25;;;9.68;;
8819;SDS011;4446;50.876;4.736;2023-04-08T09:36:12;13.77;;;8.88;;
8819;SDS011;4446;50.876;4.736;2023-04-08T09:38:41;14.70;;;8.52;;
8819;SDS011;4446;50.876;4.736;2023-04-08T09:41:08;9.00;;;7.13;;
8819;SDS011;4446;50.876;4.736;2023-04-08T09:43:40;11.00;;;7.80;;
8819;SDS011;4446;50.876;4.736;2023-04-08T09:46:13;10.63;;;7.50;;
8819;SDS011;4446;50.876;4.736;2023-04-08T09:48:44;9.77;;;8.38;;
8819;SDS011;4446;50.876;4.736;2023-04-08T09:51:15;8.05;;;6.50;;
8819;SDS011;4446;50.876;4.736;2023-04-08T09:53:46;9.07;;;6.32;;
8819;SDS011;4446;50.876;4.736;2023-04-08T09:56:15;9.35;;;6.30;;
8819;SDS011;4446;50.876;4.736;2023-04-08T09:58:48;9.32;;;6.10;;
8819;SDS011;4446;50.876;4.736;2023-04-08T10:01:21;9.05;;;6.90;;
8819;SDS011;4446;50.876;4.736;2023-04-08T10:03:53;7.88;;;6.28;;
8819;SDS011;4446;50.876;4.736;2023-04-08T10:06:23;6.50;;;5.60;;
8819;SDS011;4446;50.876;4.736;2023-04-08T10:08:56;7.35;;;6.50;;
8819;SDS011;4446;50.876;4.736;2023-04-08T10:11:24;9.65;;;6.70;;
8819;SDS011;4446;50.876;4.736;2023-04-08T10:13:51;9.85;;;6.93;;
8819;SDS011;4446;50.876;4.736;2023-04-08T10:16:19;8.23;;;6.45;;
8819;SDS011;4446;50.876;4.736;2023-04-08T10:18:48;7.15;;;5.10;;
8819;SDS011;4446;50.876;4.736;2023-04-08T10:24:00;6.50;;;5.50;;
8819;SDS011;4446;50.876;4.736;2023-04-08T10:26:32;5.93;;;5.30;;
8819;SDS011;4446;50.876;4.736;2023-04-08T10:32:06;7.82;;;5.47;;
8819;SDS011;4446;50.876;4.736;2023-04-08T10:34:33;6.55;;;5.30;;
8819;SDS011;4446;50.876;4.736;2023-04-08T10:37:00;7.38;;;5.82;;
8819;SDS011;4446;50.876;4.736;2023-04-08T10:39:29;8.48;;;6.70;;
8819;SDS011;4446;50.876;4.736;2023-04-08T10:41:56;10.38;;;7.57;;
8819;SDS011;4446;50.876;4.736;2023-04-08T10:44:26;9.90;;;7.32;;
8819;SDS011;4446;50.876;4.736;2023-04-08T10:46:53;10.68;;;7.22;;
8819;SDS011;4446;50.876;4.736;2023-04-08T10:49:20;10.18;;;7.50;;
8819;SDS011;4446;50.876;4.736;2023-04-08T10:51:48;10.40;;;7.43;;
8819;SDS011;4446;50.876;4.736;2023-04-08T10:54:15;8.90;;;6.55;;
8819;SDS011;4446;50.876;4.736;2023-04-08T10:56:47;9.05;;;5.75;;
8819;SDS011;4446;50.876;4.736;2023-04-08T10:59:15;6.50;;;5.32;;
8819;SDS011;4446;50.876;4.736;2023-04-08T11:01:44;6.28;;;5.40;;
8819;SDS011;4446;50.876;4.736;2023-04-08T11:04:12;7.10;;;5.15;;
8819;SDS011;4446;50.876;4.736;2023-04-08T11:06:41;7.35;;;6.20;;
8819;SDS011;4446;50.876;4.736;2023-04-08T11:09:09;7.25;;;6.28;;
8819;SDS011;4446;50.876;4.736;2023-04-08T11:11:36;8.82;;;7.07;;
8819;SDS011;4446;50.876;4.736;2023-04-08T11:14:04;9.18;;;6.88;;
8819;SDS011;4446;50.876;4.736;2023-04-08T11:16:32;9.07;;;7.07;;
8819;SDS011;4446;50.876;4.736;2023-04-08T11:19:01;7.82;;;6.20;;
8819;SDS011;4446;50.876;4.736;2023-04-08T11:21:29;9.50;;;6.93;;
8819;SDS011;4446;50.876;4.736;2023-04-08T11:23:56;10.45;;;7.90;;
8819;SDS011;4446;50.876;4.736;2023-04-08T11:26:23;9.85;;;8.10;;
8819;SDS011;4446;50.876;4.736;2023-04-08T11:28:52;10.45;;;7.78;;
8819;SDS011;4446;50.876;4.736;2023-04-08T11:31:21;10.77;;;8.38;;
8819;SDS011;4446;50.876;4.736;2023-04-08T11:33:48;10.90;;;8.18;;
8819;SDS011;4446;50.876;4.736;2023-04-08T11:36:18;9.57;;;7.72;;
8819;SDS011;4446;50.876;4.736;2023-04-08T11:38:45;9.77;;;8.18;;
8819;SDS011;4446;50.876;4.736;2023-04-08T11:41:13;11.63;;;8.25;;
8819;SDS011;4446;50.876;4.736;2023-04-08T11:43:49;11.63;;;9.25;;
8819;SDS011;4446;50.876;4.736;2023-04-08T11:46:17;10.85;;;8.27;;
8819;SDS011;4446;50.876;4.736;2023-04-08T11:48:57;11.25;;;8.70;;
8819;SDS011;4446;50.876;4.736;2023-04-08T11:51:24;8.98;;;7.50;;
8819;SDS011;4446;50.876;4.736;2023-04-08T11:53:52;12.23;;;8.55;;
8819;SDS011;4446;50.876;4.736;2023-04-08T11:56:20;9.60;;;8.27;;
8819;SDS011;4446;50.876;4.736;2023-04-08T11:58:48;10.80;;;8.75;;
8819;SDS011;4446;50.876;4.736;2023-04-08T12:01:15;9.75;;;8.07;;
8819;SDS011;4446;50.876;4.736;2023-04-08T12:03:57;9.40;;;8.38;;
8819;SDS011;4446;50.876;4.736;2023-04-08T12:06:25;10.77;;;8.65;;
8819;SDS011;4446;50.876;4.736;2023-04-08T12:08:53;11.60;;;9.35;;
8819;SDS011;4446;50.876;4.736;2023-04-08T12:11:20;13.85;;;8.93;;
8819;SDS011;4446;50.876;4.736;2023-04-08T12:13:48;8.88;;;7.80;;
8819;SDS011;4446;50.876;4.736;2023-04-08T12:16:16;10.77;;;9.27;;
8819;SDS011;4446;50.876;4.736;2023-04-08T12:18:44;13.35;;;10.40;;
8819;SDS011;4446;50.876;4.736;2023-04-08T12:21:12;15.55;;;12.02;;
8819;SDS011;4446;50.876;4.736;2023-04-08T12:23:39;14.85;;;12.63;;
8819;SDS011;4446;50.876;4.736;2023-04-08T12:26:06;13.65;;;11.70;;
8819;SDS011;4446;50.876;4.736;2023-04-08T12:28:33;15.55;;;12.90;;
8819;SDS011;4446;50.876;4.736;2023-04-08T12:31:00;14.52;;;12.13;;
8819;SDS011;4446;50.876;4.736;2023-04-08T12:33:27;16.90;;;13.25;;
8819;SDS011;4446;50.876;4.736;2023-04-08T12:35:55;18.60;;;13.45;;
8819;SDS011;4446;50.876;4.736;2023-04-08T12:38:24;17.98;;;14.57;;
8819;SDS011;4446;50.876;4.736;2023-04-08T12:40:51;18.52;;;14.75;;
8819;SDS011;4446;50.876;4.736;2023-04-08T12:43:18;17.98;;;14.68;;
8819;SDS011;4446;50.876;4.736;2023-04-08T12:45:46;18.00;;;14.20;;
8819;SDS011;4446;50.876;4.736;2023-04-08T12:48:13;20.52;;;16.23;;
8819;SDS011;4446;50.876;4.736;2023-04-08T12:50:40;20.38;;;15.68;;
8819;SDS011;4446;50.876;4.736;2023-04-08T12:53:07;20.13;;;15.60;;
8819;SDS011;4446;50.876;4.736;2023-04-08T12:55:35;18.67;;;15.30;;
8819;SDS011;4446;50.876;4.736;2023-04-08T12:58:02;19.73;;;16.00;;
8819;SDS011;4446;50.876;4.736;2023-04-08T13:00:30;18.50;;;14.38;;
8819;SDS011;4446;50.876;4.736;2023-04-08T13:02:57;17.88;;;14.38;;
8819;SDS011;4446;50.876;4.736;2023-04-08T13:05:23;20.40;;;14.98;;
8819;SDS011;4446;50.876;4.736;2023-04-08T13:07:50;16.70;;;14.38;;
8819;SDS011;4446;50.876;4.736;2023-04-08T13:10:45;16.38;;;14.05;;
8819;SDS011;4446;50.876;4.736;2023-04-08T13:13:12;16.80;;;13.55;;
8819;SDS011;4446;50.876;4.736;2023-04-08T13:15:39;19.58;;;16.50;;
8819;SDS011;4446;50.876;4.736;2023-04-08T13:18:06;19.77;;;15.80;;
8819;SDS011;4446;50.876;4.736;2023-04-08T13:20:33;18.15;;;15.73;;
8819;SDS011;4446;50.876;4.736;2023-04-08T13:23:00;19.60;;;15.52;;
8819;SDS011;4446;50.876;4.736;2023-04-08T13:25:27;21.00;;;16.20;;
8819;SDS011;4446;50.876;4.736;2023-04-08T13:27:56;20.08;;;15.70;;
8819;SDS011;4446;50.876;4.736;2023-04-08T13:30:22;21.35;;;16.20;;
8819;SDS011;4446;50.876;4.736;2023-04-08T13:32:49;21.55;;;16.50;;
8819;SDS011;4446;50.876;4.736;2023-04-08T13:35:16;19.63;;;15.77;;
8819;SDS011;4446;50.876;4.736;2023-04-08T13:37:43;18.88;;;15.20;;
8819;SDS011;4446;50.876;4.736;2023-04-08T13:40:10;19.50;;;15.35;;
8819;SDS011;4446;50.876;4.736;2023-04-08T13:42:38;18.48;;;14.98;;
8819;SDS011;4446;50.876;4.736;2023-04-08T13:45:07;18.02;;;13.57;;
8819;SDS011;4446;50.876;4.736;2023-04-08T13:47:34;19.02;;;14.93;;
8819;SDS011;4446;50.876;4.736;2023-04-08T13:50:01;17.58;;;14.05;;
8819;SDS011;4446;50.876;4.736;2023-04-08T13:52:28;16.45;;;14.50;;
8819;SDS011;4446;50.876;4.736;2023-04-08T13:54:55;17.42;;;14.45;;
8819;SDS011;4446;50.876;4.736;2023-04-08T13:57:22;19.50;;;15.63;;
8819;SDS011;4446;50.876;4.736;2023-04-08T13:59:49;16.58;;;13.80;;
8819;SDS011;4446;50.876;4.736;2023-04-08T14:02:17;17.50;;;14.32;;
8819;SDS011;4446;50.876;4.736;2023-04-08T14:04:45;16.80;;;13.70;;
8819;SDS011;4446;50.876;4.736;2023-04-08T14:07:12;16.35;;;13.90;;
8819;SDS011;4446;50.876;4.736;2023-04-08T14:09:40;15.90;;;13.88;;
8819;SDS011;4446;50.876;4.736;2023-04-08T14:12:06;16.63;;;13.93;;
8819;SDS011;4446;50.876;4.736;2023-04-08T14:14:33;16.52;;;13.70;;
8819;SDS011;4446;50.876;4.736;2023-04-08T14:17:00;15.20;;;13.15;;
8819;SDS011;4446;50.876;4.736;2023-04-08T14:19:28;14.15;;;11.98;;
8819;SDS011;4446;50.876;4.736;2023-04-08T14:21:56;15.60;;;13.18;;
8819;SDS011;4446;50.876;4.736;2023-04-08T14:24:23;14.70;;;12.63;;
8819;SDS011;4446;50.876;4.736;2023-04-08T14:26:50;16.98;;;13.85;;
8819;SDS011;4446;50.876;4.736;2023-04-08T14:29:17;15.63;;;13.98;;
8819;SDS011;4446;50.876;4.736;2023-04-08T14:31:43;13.82;;;12.23;;
8819;SDS011;4446;50.876;4.736;2023-04-08T14:34:10;15.05;;;12.60;;
8819;SDS011;4446;50.876;4.736;2023-04-08T14:36:39;14.75;;;12.73;;
8819;SDS011;4446;50.876;4.736;2023-04-08T14:39:05;15.07;;;12.13;;
8819;SDS011;4446;50.876;4.736;2023-04-08T14:41:32;13.85;;;12.20;;
8819;SDS011;4446;50.876;4.736;2023-04-08T14:43:59;13.05;;;11.65;;
8819;SDS011;4446;50.876;4.736;2023-04-08T14:46:26;16.20;;;13.50;;
8819;SDS011;4446;50.876;4.736;2023-04-08T14:48:53;13.70;;;12.32;;
8819;SDS011;4446;50.876;4.736;2023-04-08T14:51:20;15.23;;;13.60;;
8819;SDS011;4446;50.876;4.736;2023-04-08T14:53:48;14.32;;;12.82;;
8819;SDS011;4446;50.876;4.736;2023-04-08T14:56:15;15.65;;;13.30;;
8819;SDS011;4446;50.876;4.736;2023-04-08T14:58:42;15.35;;;13.48;;
8819;SDS011;4446;50.876;4.736;2023-04-08T15:01:09;13.70;;;12.23;;
8819;SDS011;4446;50.876;4.736;2023-04-08T15:03:36;13.73;;;12.27;;
8819;SDS011;4446;50.876;4.736;2023-04-08T15:06:03;15.07;;;13.48;;